最終日のその後…

LUXURY FLIGHT

080-7560-1817

羽田空港本店:東京都大田区羽田空港3-3-2
第一旅客ターミナル5階
営業時間:10:00~20:00
定休日:年中無休

セントレア店:愛知県常滑市セントレア1-1
FLIGHT OF DREAMS FLIGHT PARK
営業時間:10:00~20:00
定休日:年中無休

lv

最終日のその後…

STAFF BLOG

2020/02/21 最終日のその後…

こんばんはーーーー

本日も移転に伴う作業をひたすらとしておりました!!!

 

今夜の羽田周辺のMETARは…

 

RJTT 211100Z 16009KT 9999 SCT030 BKN/// 11/06 Q1032

NOSIG RMK 3CU030 A3050

 

 

さて、一昨日に最終日を迎えた羽田本店でございますが、

最後の最後(ほぼ夜中)までお客様が途切れることなくご来店くださり、

本当に嬉しい限りでございました。

 

最終日に限らずとも、ここ数週間で737と最後のお別れをしにご来店くださった皆さま、

本当にありがとうございます。

 

スタッフ一同、心より御礼申し上げます。

 

img_4962

 

東海地方からお越し下さった常連さまY様軍団

 

737へ花束をご用意してくださいました

 

受け取った時には、少々涙ぐんでしまい…

 

img_4963

 

花束があるだけで、737がパッと華やかになって、737本人もとても嬉しそう

でも心無しか、寂しさも感じます。

 

私自身も卒業式の前日のような、なんとも言えない青春の気持ちを思い出しました。

 

 

 

img_4972

 

そして…

 

とうとう迫った、ラストフライト&ラストランディング。

 

お客様との最後のランディングは、もちろん弊社代表自らの手でアテンド!!

 

居合わせた多くのお客様が見守る中、

このラストフライトをするためだけに、福岡から来てくださったN様をサポートさせて頂きました。

 

 

img_4964

 

たまたま居合わせた常連の皆さまと、

最後のフライトの後に、思いつきでプチ慰労会もさせて頂きました

 

スーパー&コンビニで寄せ集めた、食事とおつまみでのささやかな宴で恐縮でしたが、

お客様からの差し入れが花を添えてくださりました!!

 

ここでもお客様に救われ、本当に有難く思います。

 

終電ギリギリまで話は尽きず、楽しいお時間を共有させて頂きありがとうございました!!!

 

何度も何度もくどいかもしれませんが、本当にありがとうございます。

 

img_4965

 

そして、昨日の737は…

 

惜しまれつつ、

でも容赦無く、笑

 

弊社代表の監督の元、解体が進んでおります。

 

新天地での活躍に思いを馳せながら、

スタッフ一人一人がウエスで磨き上げながら、丁寧に部品を外していきました。

 

明日以降も、移転に向けて万全の体制を整えるべく

ただひたすらに、準備を進めて参ります。

 

タイミングを見計らって状況のご報告をさせて頂きますので、

引き続き何卒宜しくお願い致します。

 

いつもブログを読んでくださり、

本当にありがとうございます。

 

「感謝」

 

 

 

 

 

 

 

TOP